Aviation Digital Data Service (ADDS)

Output produced by METARs form (0050 UTC 23 March 2019)
found at http://www.aviationweather.gov/metar/data/
 
Forecast for: ESIB (SATENAS (SWE-AFB, SE)
Text: TAF ESIB 222339Z 2300/2309 22015G25KT 9999 BKN008
Forecast period: 0000 to 0700 UTC 23 March 2019
Forecast type: FROM: standard forecast or significant change
Winds: from the SW (220 degrees) at 17 MPH (15 knots; 7.7 m/s)
gusting to 29 MPH (25 knots; 12.9 m/s)
Visibility: 6 or more miles 10+ km)
Ceiling: 800 feet AGL
Clouds: broken clouds at 800 feet AGL
Weather: no significant weather forecast for this period
Text: TEMPO 2300/2306 3000 -RA DZ BKN003
Forecast period: 0000 to 0600 UTC 23 March 2019
Forecast type: TEMPORARY: The following changes expected for less than half the time period
Visibility: 1.86 miles (2.99 km)
Ceiling: 300 feet AGL
Clouds: broken clouds at 300 feet AGL
Weather: -RA DZ  (light rain, moderate drizzle)
Text: BECMG 2307/2309 CAVOK RMK MIL
Forecast period: 0700 to 0900 UTC 23 March 2019
Forecast type: BECOMING: Conditions expected to become as follows by 0900 UTC 23 March 2019
Winds: from the SW (220 degrees) at 17 MPH (15 knots; 7.7 m/s)
gusting to 29 MPH (25 knots; 12.9 m/s)
Visibility: 6 or more miles 10+ km)
Ceiling: unknown
Clouds: missing
Weather: NSW  (no significant weather)